Time;durP1;ratioP1;P1;durP2;ratioP2;P2;SDS_P1;SDS_P2;PMS_P1;PMS_P2;Temp;Humidity;BMP_temperature;BMP_pressure;BME280_temperature;BME280_humidity;BME280_pressure;Samples;Min_cycle;Max_cycle;Signal;HPM_P1;HPM_P2
2024/04/12 00:00:47;;;;;;;;;11.33;11.33;;;;;;;;5502865;25;43853;-76
2024/04/12 00:03:12;;;;;;;;;13.00;13.00;;;;;;;;5502592;25;43658;-76
2024/04/12 00:05:41;;;;;;;;;11.33;11.33;;;;;;;;5500381;25;46009;-77
2024/04/12 00:08:07;;;;;;;;;13.00;12.00;;;;;;;;5500695;25;43843;-76
2024/04/12 00:10:33;;;;;;;;;13.67;13.33;;;;;;;;5502770;25;43889;-75
2024/04/12 00:13:00;;;;;;;;;10.00;9.67;;;;;;;;5502400;25;44013;-76
2024/04/12 00:15:27;;;;;;;;;10.33;10.33;;;;;;;;5502355;25;43940;-76
2024/04/12 00:17:55;;;;;;;;;11.33;11.33;;;;;;;;5502595;25;43751;-76
2024/04/12 00:20:21;;;;;;;;;12.67;11.67;;;;;;;;5502035;25;44035;-76
2024/04/12 00:22:48;;;;;;;;;13.33;13.33;;;;;;;;5500250;25;43981;-76
2024/04/12 00:25:14;;;;;;;;;14.00;14.00;;;;;;;;5500297;25;46794;-76
2024/04/12 00:27:39;;;;;;;;;12.67;12.67;;;;;;;;5501943;25;43739;-76
2024/04/12 00:30:05;;;;;;;;;15.33;15.00;;;;;;;;5502295;25;43711;-76
2024/04/12 00:32:34;;;;;;;;;13.67;13.33;;;;;;;;5501988;25;43860;-75
2024/04/12 00:35:00;;;;;;;;;13.33;13.00;;;;;;;;5501788;25;43913;-76
2024/04/12 00:37:27;;;;;;;;;12.67;12.67;;;;;;;;5505176;25;43975;-76
2024/04/12 00:39:54;;;;;;;;;16.00;15.67;;;;;;;;5505127;25;43851;-76
2024/04/12 00:42:31;;;;;;;;;13.00;12.00;;;;;;;;5504368;25;44023;-76
2024/04/12 00:44:58;;;;;;;;;12.33;12.33;;;;;;;;5502803;25;45899;-76
2024/04/12 00:47:23;;;;;;;;;18.67;15.00;;;;;;;;5503172;25;44064;-76
2024/04/12 00:49:51;;;;;;;;;17.00;13.67;;;;;;;;5503585;25;43928;-76
2024/04/12 00:52:22;;;;;;;;;14.67;14.33;;;;;;;;5504627;25;44108;-76
2024/04/12 00:54:53;;;;;;;;;10.67;10.67;;;;;;;;5504664;25;44780;-76
2024/04/12 00:57:18;;;;;;;;;12.67;12.67;;;;;;;;5502726;25;44752;-76
2024/04/12 00:59:43;;;;;;;;;14.67;13.00;;;;;;;;5503003;25;43797;-76
2024/04/12 01:02:09;;;;;;;;;12.00;12.00;;;;;;;;5504319;25;44119;-76
2024/04/12 01:04:36;;;;;;;;;13.00;12.33;;;;;;;;5504508;25;44859;-76
2024/04/12 01:07:04;;;;;;;;;12.33;11.67;;;;;;;;5504714;25;43974;-75
2024/04/12 01:09:29;;;;;;;;;12.00;11.33;;;;;;;;5502819;25;43826;-76
2024/04/12 01:11:56;;;;;;;;;13.67;13.00;;;;;;;;5504332;25;43817;-76
2024/04/12 01:14:25;;;;;;;;;12.33;12.33;;;;;;;;5504451;25;45263;-76
2024/04/12 01:16:54;;;;;;;;;14.67;14.33;;;;;;;;5504661;25;43683;-76
2024/04/12 01:19:19;;;;;;;;;13.00;13.00;;;;;;;;5504409;25;43908;-76
2024/04/12 01:21:45;;;;;;;;;12.00;11.00;;;;;;;;5504538;25;43953;-76
2024/04/12 01:24:10;;;;;;;;;8.00;8.00;;;;;;;;5504386;25;43976;-76
2024/04/12 01:26:35;;;;;;;;;15.00;15.00;;;;;;;;5504624;25;43893;-76
2024/04/12 01:29:02;;;;;;;;;15.00;14.33;;;;;;;;5504273;25;43816;-76
2024/04/12 01:31:27;;;;;;;;;12.00;12.00;;;;;;;;5504477;25;43887;-76
2024/04/12 01:33:53;;;;;;;;;16.00;15.33;;;;;;;;5502375;25;47016;-76
2024/04/12 01:36:21;;;;;;;;;13.00;13.00;;;;;;;;5504174;25;43621;-76
2024/04/12 01:38:53;;;;;;;;;15.33;14.00;;;;;;;;5504472;25;43976;-76
2024/04/12 01:41:22;;;;;;;;;14.33;14.00;;;;;;;;5504438;25;43814;-76
2024/04/12 01:43:52;;;;;;;;;11.67;10.67;;;;;;;;5503755;25;43829;-76
2024/04/12 01:46:17;;;;;;;;;17.00;15.67;;;;;;;;5503747;25;43991;-76
2024/04/12 01:48:43;;;;;;;;;18.33;15.00;;;;;;;;5503616;25;43804;-76
2024/04/12 01:51:13;;;;;;;;;16.67;15.33;;;;;;;;5502433;25;44788;-76
2024/04/12 01:53:40;;;;;;;;;15.67;14.00;;;;;;;;5502221;25;45859;-76
2024/04/12 01:56:05;;;;;;;;;19.00;17.00;;;;;;;;5504253;25;43944;-76
2024/04/12 01:58:34;;;;;;;;;18.67;18.33;;;;;;;;5502102;25;43854;-76
2024/04/12 02:01:02;;;;;;;;;17.00;15.33;;;;;;;;5502112;25;44301;-76
2024/04/12 02:03:29;;;;;;;;;16.00;16.00;;;;;;;;5503920;25;43863;-76
2024/04/12 02:05:56;;;;;;;;;18.00;18.00;;;;;;;;5502229;25;44465;-75
2024/04/12 02:08:23;;;;;;;;;15.00;15.00;;;;;;;;5504289;25;43877;-76
2024/04/12 02:10:49;;;;;;;;;19.67;16.00;;;;;;;;5504182;25;43806;-76
2024/04/12 02:13:17;;;;;;;;;15.00;15.00;;;;;;;;5503448;25;43943;-76
2024/04/12 02:15:52;;;;;;;;;16.00;14.33;;;;;;;;5504032;25;43711;-76
2024/04/12 02:18:21;;;;;;;;;16.00;16.00;;;;;;;;5504177;25;43742;-76
2024/04/12 02:20:51;;;;;;;;;17.00;16.67;;;;;;;;5503183;25;43932;-76
2024/04/12 02:23:19;;;;;;;;;18.00;15.67;;;;;;;;5503798;25;43912;-75
2024/04/12 02:25:44;;;;;;;;;17.67;16.00;;;;;;;;5503345;25;43933;-76
2024/04/12 02:28:11;;;;;;;;;20.00;17.33;;;;;;;;5503630;25;43792;-76
2024/04/12 02:30:54;;;;;;;;;20.00;16.00;;;;;;;;5501961;25;45075;-76
2024/04/12 02:33:20;;;;;;;;;15.00;14.00;;;;;;;;5503703;25;45170;-76
2024/04/12 02:35:45;;;;;;;;;14.00;13.00;;;;;;;;5503381;25;43894;-76
2024/04/12 02:38:15;;;;;;;;;14.33;14.00;;;;;;;;5504047;25;43857;-76
2024/04/12 02:40:41;;;;;;;;;15.00;14.00;;;;;;;;5503688;25;43692;-76
2024/04/12 02:43:08;;;;;;;;;14.67;13.33;;;;;;;;5501284;25;44664;-76
2024/04/12 02:45:35;;;;;;;;;16.33;14.67;;;;;;;;5503674;25;43939;-76
2024/04/12 02:48:02;;;;;;;;;17.33;15.67;;;;;;;;5503735;25;43820;-76
2024/04/12 02:50:27;;;;;;;;;16.33;16.33;;;;;;;;5501505;25;44710;-76
2024/04/12 02:52:53;;;;;;;;;17.33;17.00;;;;;;;;5503352;25;44817;-76
2024/04/12 02:55:18;;;;;;;;;16.00;16.00;;;;;;;;5503680;25;44051;-76
2024/04/12 02:57:45;;;;;;;;;18.33;17.00;;;;;;;;5502882;25;43885;-76
2024/04/12 03:00:23;;;;;;;;;18.00;18.00;;;;;;;;5501404;25;44693;-76
2024/04/12 03:02:52;;;;;;;;;17.00;15.67;;;;;;;;5503610;25;43885;-76
2024/04/12 03:05:23;;;;;;;;;18.33;18.33;;;;;;;;5503328;25;43952;-76
2024/04/12 03:07:51;;;;;;;;;16.67;15.67;;;;;;;;5501772;25;44029;-76
2024/04/12 03:10:18;;;;;;;;;19.33;18.00;;;;;;;;5503176;25;43871;-76
2024/04/12 03:12:44;;;;;;;;;15.67;14.33;;;;;;;;5503132;25;44302;-76
2024/04/12 03:15:10;;;;;;;;;16.33;15.00;;;;;;;;5503144;25;44247;-76
2024/04/12 03:17:35;;;;;;;;;14.00;14.00;;;;;;;;5501606;25;43814;-75
2024/04/12 03:20:03;;;;;;;;;14.67;14.67;;;;;;;;5501371;25;45832;-76
2024/04/12 03:22:28;;;;;;;;;14.00;13.67;;;;;;;;5503125;25;44036;-76
2024/04/12 03:24:53;;;;;;;;;18.33;18.33;;;;;;;;5501275;25;44469;-75
2024/04/12 03:27:19;;;;;;;;;14.00;14.00;;;;;;;;5502905;25;43866;-76
2024/04/12 03:29:49;;;;;;;;;14.67;13.67;;;;;;;;5502817;25;43812;-76
2024/04/12 03:32:14;;;;;;;;;17.67;16.67;;;;;;;;5501205;25;45902;-76
2024/04/12 03:34:40;;;;;;;;;15.33;15.00;;;;;;;;5502982;25;43695;-76
2024/04/12 03:37:36;;;;;;;;;16.33;16.33;;;;;;;;5503180;25;43781;-76
2024/04/12 03:40:03;;;;;;;;;13.00;13.00;;;;;;;;5501273;25;44959;-76
2024/04/12 03:42:29;;;;;;;;;15.00;15.00;;;;;;;;5502760;25;44828;-76
2024/04/12 03:44:57;;;;;;;;;15.67;15.00;;;;;;;;5500844;25;44777;-76
2024/04/12 03:47:25;;;;;;;;;15.33;15.33;;;;;;;;5501600;25;43937;-76
2024/04/12 03:49:52;;;;;;;;;14.33;14.33;;;;;;;;5502764;25;44234;-76
2024/04/12 03:52:19;;;;;;;;;14.00;14.00;;;;;;;;5500990;25;46006;-76
2024/04/12 03:54:47;;;;;;;;;14.00;14.00;;;;;;;;5502857;25;43972;-76
2024/04/12 03:57:13;;;;;;;;;15.67;14.67;;;;;;;;5502582;25;43820;-76
2024/04/12 03:59:42;;;;;;;;;14.67;14.67;;;;;;;;5507669;25;43919;-76
2024/04/12 04:02:07;;;;;;;;;16.33;15.33;;;;;;;;5523345;25;46146;-76
2024/04/12 04:04:44;;;;;;;;;14.00;14.00;;;;;;;;5502759;25;43812;-76
2024/04/12 04:07:10;;;;;;;;;12.33;12.33;;;;;;;;5500326;25;44010;-76
2024/04/12 04:09:35;;;;;;;;;16.67;15.67;;;;;;;;5499706;25;43889;-76
2024/04/12 04:12:01;;;;;;;;;15.00;14.00;;;;;;;;5501959;25;43927;-76
2024/04/12 04:14:26;;;;;;;;;15.00;11.33;;;;;;;;5500407;25;43929;-75
2024/04/12 04:16:52;;;;;;;;;17.00;15.00;;;;;;;;5502659;25;43832;-76
2024/04/12 04:19:18;;;;;;;;;17.00;17.00;;;;;;;;5502193;25;43885;-76
2024/04/12 04:21:43;;;;;;;;;15.33;15.00;;;;;;;;5502497;25;44107;-76
2024/04/12 04:24:09;;;;;;;;;14.33;13.67;;;;;;;;5502301;25;43715;-75
2024/04/12 04:26:38;;;;;;;;;17.00;17.00;;;;;;;;5500485;25;44270;-76
2024/04/12 04:29:09;;;;;;;;;16.67;16.00;;;;;;;;5501472;25;44148;-76
2024/04/12 04:31:43;;;;;;;;;16.33;16.00;;;;;;;;5500830;25;44243;-76
2024/04/12 04:34:12;;;;;;;;;15.33;13.33;;;;;;;;5500571;25;44044;-75
2024/04/12 04:36:38;;;;;;;;;15.67;15.67;;;;;;;;5502024;25;43816;-76
2024/04/12 04:39:03;;;;;;;;;16.33;14.67;;;;;;;;5501755;25;43917;-76
2024/04/12 04:41:29;;;;;;;;;17.00;17.00;;;;;;;;5501803;25;43962;-76
2024/04/12 04:43:54;;;;;;;;;13.00;13.00;;;;;;;;5499429;25;43887;-76
2024/04/12 04:46:26;;;;;;;;;13.33;13.33;;;;;;;;5502044;25;43978;-76
2024/04/12 04:48:52;;;;;;;;;11.00;11.00;;;;;;;;5501582;25;44172;-76
2024/04/12 04:51:17;;;;;;;;;13.00;13.00;;;;;;;;5499266;25;45704;-76
2024/04/12 04:53:42;;;;;;;;;12.00;11.67;;;;;;;;5501587;25;43940;-76
2024/04/12 04:56:08;;;;;;;;;9.33;9.33;;;;;;;;5500684;25;43966;-76
2024/04/12 04:58:34;;;;;;;;;13.00;13.00;;;;;;;;5501104;25;43738;-76
2024/04/12 05:01:01;;;;;;;;;16.00;14.33;;;;;;;;5500894;25;44054;-76
2024/04/12 05:03:26;;;;;;;;;14.33;14.00;;;;;;;;5501223;25;43839;-76
2024/04/12 05:05:52;;;;;;;;;19.00;16.67;;;;;;;;5499783;25;43772;-76
2024/04/12 05:08:20;;;;;;;;;17.00;14.00;;;;;;;;5501294;25;43844;-76
2024/04/12 05:10:45;;;;;;;;;18.00;18.00;;;;;;;;5499199;25;46140;-76
2024/04/12 05:13:11;;;;;;;;;16.67;16.33;;;;;;;;5500869;25;43816;-75
2024/04/12 05:18:05;;;;;;;;;20.33;18.67;;;;;;;;5501118;25;43970;-76
2024/04/12 05:20:39;;;;;;;;;19.00;19.00;;;;;;;;5500776;25;44021;-76
2024/04/12 05:23:08;;;;;;;;;23.33;19.00;;;;;;;;5502730;25;43926;-76
2024/04/12 05:25:34;;;;;;;;;16.67;16.33;;;;;;;;5504697;25;43725;-76
2024/04/12 05:27:59;;;;;;;;;19.00;19.00;;;;;;;;5504107;25;43751;-76
2024/04/12 05:30:24;;;;;;;;;16.00;15.00;;;;;;;;5502501;25;46706;-76
2024/04/12 05:32:50;;;;;;;;;19.00;17.00;;;;;;;;5504282;25;43996;-76
2024/04/12 05:35:15;;;;;;;;;18.33;17.67;;;;;;;;5502630;25;43842;-76
2024/04/12 05:37:43;;;;;;;;;18.00;17.00;;;;;;;;5504359;25;43633;-76
2024/04/12 05:40:12;;;;;;;;;18.33;15.67;;;;;;;;5504147;25;44751;-76
2024/04/12 05:42:41;;;;;;;;;20.00;18.00;;;;;;;;5504062;25;43829;-75
2024/04/12 05:45:06;;;;;;;;;15.00;14.67;;;;;;;;5504098;25;43911;-76
2024/04/12 05:47:32;;;;;;;;;20.33;17.67;;;;;;;;5504181;25;43973;-76
2024/04/12 05:50:01;;;;;;;;;20.00;19.00;;;;;;;;5504051;25;44112;-76
2024/04/12 05:52:29;;;;;;;;;18.33;18.33;;;;;;;;5502374;25;43851;-75
2024/04/12 05:54:55;;;;;;;;;16.33;16.33;;;;;;;;5504045;25;44154;-76
2024/04/12 05:57:22;;;;;;;;;21.67;18.33;;;;;;;;5503639;25;43765;-76
2024/04/12 05:59:50;;;;;;;;;17.00;15.67;;;;;;;;5502129;25;46218;-75
2024/04/12 06:02:17;;;;;;;;;19.00;19.00;;;;;;;;5503682;25;43897;-76
2024/04/12 06:04:47;;;;;;;;;18.67;16.33;;;;;;;;5504017;25;43881;-76
2024/04/12 06:07:13;;;;;;;;;17.67;17.67;;;;;;;;5503828;25;44179;-76
2024/04/12 06:09:38;;;;;;;;;23.00;17.67;;;;;;;;5503742;25;43914;-76
2024/04/12 06:12:06;;;;;;;;;19.00;19.00;;;;;;;;5501638;25;43860;-76
2024/04/12 06:14:33;;;;;;;;;18.00;17.33;;;;;;;;5503838;25;43753;-76
2024/04/12 06:17:00;;;;;;;;;19.33;19.00;;;;;;;;5503981;25;43932;-76
2024/04/12 06:19:25;;;;;;;;;20.67;19.67;;;;;;;;5503635;25;43956;-76
2024/04/12 06:21:51;;;;;;;;;16.00;15.00;;;;;;;;5503915;25;43622;-76
2024/04/12 06:24:26;;;;;;;;;17.00;15.00;;;;;;;;5526712;25;44381;-75
2024/04/12 06:26:55;;;;;;;;;21.33;20.67;;;;;;;;5541219;25;43862;-76
2024/04/12 06:29:22;;;;;;;;;19.33;19.00;;;;;;;;5538940;25;45770;-76
2024/04/12 06:31:49;;;;;;;;;24.00;21.00;;;;;;;;5541235;25;43865;-76
2024/04/12 06:34:17;;;;;;;;;15.00;14.67;;;;;;;;5538383;25;43774;-76
2024/04/12 06:36:46;;;;;;;;;14.00;14.00;;;;;;;;5540984;25;43907;-76
2024/04/12 06:39:12;;;;;;;;;13.00;13.00;;;;;;;;5541125;25;44889;-75
2024/04/12 06:41:37;;;;;;;;;15.00;15.00;;;;;;;;5539124;25;43919;-75
2024/04/12 06:44:03;;;;;;;;;12.67;12.00;;;;;;;;5540762;25;43919;-75
2024/04/12 06:46:28;;;;;;;;;12.67;12.00;;;;;;;;5538920;25;44653;-74
2024/04/12 06:49:07;;;;;;;;;14.00;14.00;;;;;;;;5540774;25;44619;-75
2024/04/12 06:51:32;;;;;;;;;14.33;13.00;;;;;;;;5539337;25;43756;-74
2024/04/12 06:53:57;;;;;;;;;14.00;14.00;;;;;;;;5539055;25;43916;-75
2024/04/12 06:56:23;;;;;;;;;16.00;15.00;;;;;;;;5541072;25;43811;-75
2024/04/12 06:58:48;;;;;;;;;13.00;13.00;;;;;;;;5501604;25;45569;-75
2024/04/12 07:01:15;;;;;;;;;14.00;14.00;;;;;;;;5503302;25;43903;-75
2024/04/12 07:03:40;;;;;;;;;13.00;13.00;;;;;;;;5503438;25;44022;-75
2024/04/12 07:06:07;;;;;;;;;15.67;15.00;;;;;;;;5501384;25;45710;-76
2024/04/12 07:08:33;;;;;;;;;12.00;12.00;;;;;;;;5503403;25;43951;-74
2024/04/12 07:10:59;;;;;;;;;11.67;11.67;;;;;;;;5503223;25;43839;-75
2024/04/12 07:13:27;;;;;;;;;10.67;10.33;;;;;;;;5502588;25;44170;-75
2024/04/12 07:15:56;;;;;;;;;13.00;13.00;;;;;;;;5502988;25;44044;-75
2024/04/12 07:18:22;;;;;;;;;11.00;11.00;;;;;;;;5502809;25;43999;-75
2024/04/12 07:20:48;;;;;;;;;13.00;13.00;;;;;;;;5502959;25;43925;-75
2024/04/12 07:23:16;;;;;;;;;13.33;12.33;;;;;;;;5501192;25;43793;-75
2024/04/12 07:25:45;;;;;;;;;15.00;14.00;;;;;;;;5501130;25;44834;-75
2024/04/12 07:28:13;;;;;;;;;10.00;10.00;;;;;;;;5502925;25;44739;-75
2024/04/12 07:30:38;;;;;;;;;13.67;12.00;;;;;;;;5502253;25;43844;-75
2024/04/12 07:33:05;;;;;;;;;12.00;11.67;;;;;;;;5501814;25;43719;-76
2024/04/12 07:35:32;;;;;;;;;10.33;10.33;;;;;;;;5502521;25;43742;-76
2024/04/12 07:38:01;;;;;;;;;12.33;12.33;;;;;;;;5503054;25;43907;-75
2024/04/12 07:40:31;;;;;;;;;10.33;10.33;;;;;;;;5501088;25;43830;-76
2024/04/12 07:42:58;;;;;;;;;10.67;10.67;;;;;;;;5502934;25;43920;-76
2024/04/12 07:45:24;;;;;;;;;12.33;9.67;;;;;;;;5498729;25;44837;-75
2024/04/12 07:47:53;;;;;;;;;14.00;12.00;;;;;;;;5503152;25;45107;-75
2024/04/12 07:50:31;;;;;;;;;11.00;9.67;;;;;;;;5502662;25;43899;-75
2024/04/12 07:55:55;;;;;;;;;12.00;12.00;;;;;;;;5502743;25;43849;-75
2024/04/12 07:58:21;;;;;;;;;12.33;11.33;;;;;;;;5502610;25;44708;-75
2024/04/12 08:00:46;;;;;;;;;11.67;10.33;;;;;;;;5500696;25;43944;-75
2024/04/12 08:03:17;;;;;;;;;10.67;10.67;;;;;;;;5502764;25;43909;-75
2024/04/12 08:06:03;;;;;;;;;11.33;11.00;;;;;;;;5502476;25;45356;-75
2024/04/12 08:08:29;;;;;;;;;10.00;9.00;;;;;;;;5502428;25;43956;-75
2024/04/12 08:10:56;;;;;;;;;8.00;8.00;;;;;;;;5502377;25;43913;-75
2024/04/12 08:13:37;;;;;;;;;5.00;5.00;;;;;;;;5501798;25;43831;-75
2024/04/12 08:16:08;;;;;;;;;8.00;8.00;;;;;;;;5502157;25;43865;-76
2024/04/12 08:18:35;;;;;;;;;8.33;8.00;;;;;;;;5502455;25;45235;-75
2024/04/12 08:21:02;;;;;;;;;7.00;7.00;;;;;;;;5502462;25;43892;-76
2024/04/12 08:23:29;;;;;;;;;10.50;8.25;;;;;;;;5502509;25;43872;-76
2024/04/12 08:25:58;;;;;;;;;7.67;6.67;;;;;;;;5502222;25;43905;-75
2024/04/12 08:28:26;;;;;;;;;6.25;6.25;;;;;;;;5501829;25;44743;-75
2024/04/12 08:30:52;;;;;;;;;10.00;9.50;;;;;;;;5501986;25;43925;-75
2024/04/12 08:33:28;;;;;;;;;7.00;7.00;;;;;;;;5501645;25;43866;-75
2024/04/12 08:35:57;;;;;;;;;6.00;6.00;;;;;;;;5500154;25;43980;-75
2024/04/12 08:38:22;;;;;;;;;7.00;7.00;;;;;;;;5501149;25;43833;-75
2024/04/12 08:40:48;;;;;;;;;8.00;8.00;;;;;;;;5501996;25;43864;-75
2024/04/12 08:43:15;;;;;;;;;7.33;7.33;;;;;;;;5499994;25;43731;-75
2024/04/12 08:45:43;;;;;;;;;6.67;5.67;;;;;;;;5501696;25;44109;-75
2024/04/12 08:48:09;;;;;;;;;7.67;7.00;;;;;;;;5501687;25;44900;-75
2024/04/12 08:50:35;;;;;;;;;6.75;6.25;;;;;;;;5501591;25;43981;-75
2024/04/12 08:53:04;;;;;;;;;9.33;9.33;;;;;;;;5502019;25;43839;-75
2024/04/12 08:55:30;;;;;;;;;6.33;6.33;;;;;;;;5501706;25;43678;-76
2024/04/12 08:57:57;;;;;;;;;8.00;8.00;;;;;;;;5503952;25;44218;-76
2024/04/12 09:00:28;;;;;;;;;7.00;7.00;;;;;;;;5504747;25;43874;-75
2024/04/12 09:03:02;;;;;;;;;8.67;8.67;;;;;;;;5504811;25;44007;-75
2024/04/12 09:05:28;;;;;;;;;8.00;8.00;;;;;;;;5504407;25;44337;-75
2024/04/12 09:07:58;;;;;;;;;11.00;11.00;;;;;;;;5504493;25;44649;-76
2024/04/12 09:10:25;;;;;;;;;7.33;7.33;;;;;;;;5504725;25;43902;-75
2024/04/12 09:12:50;;;;;;;;;8.00;8.00;;;;;;;;5502537;25;43975;-75
2024/04/12 09:15:27;;;;;;;;;5.33;5.33;;;;;;;;5504604;25;43949;-75
2024/04/12 09:17:59;;;;;;;;;9.00;9.00;;;;;;;;5504463;25;43899;-75
2024/04/12 09:20:30;;;;;;;;;7.67;7.67;;;;;;;;5504277;25;43940;-75
2024/04/12 09:22:55;;;;;;;;;8.33;8.00;;;;;;;;5502917;25;43732;-75
2024/04/12 09:25:26;;;;;;;;;7.00;7.00;;;;;;;;5504169;25;44067;-75
2024/04/12 09:27:51;;;;;;;;;8.00;8.00;;;;;;;;5501949;25;45846;-75
2024/04/12 09:33:20;;;;;;;;;9.33;8.67;;;;;;;;5483772;25;43978;-76
2024/04/12 09:35:45;;;;;;;;;8.33;8.00;;;;;;;;5502221;25;44951;-75
2024/04/12 09:38:16;;;;;;;;;10.00;9.33;;;;;;;;5504341;25;43841;-75
2024/04/12 09:40:42;;;;;;;;;6.00;5.25;;;;;;;;5504496;25;43907;-75
2024/04/12 09:45:53;;;;;;;;;8.25;7.00;;;;;;;;5504098;25;43906;-75
2024/04/12 10:38:09;;;;;;;;;7.50;6.75;;;;;;;;5503577;25;43906;-76
2024/04/12 10:40:36;;;;;;;;;4.75;4.75;;;;;;;;5503611;25;43962;-76
2024/04/12 10:43:02;;;;;;;;;6.50;6.00;;;;;;;;5503458;25;43980;-75
2024/04/12 10:45:29;;;;;;;;;6.00;6.00;;;;;;;;5501329;25;44224;-75
2024/04/12 10:47:55;;;;;;;;;5.50;4.25;;;;;;;;5501875;25;43847;-76
2024/04/12 10:50:22;;;;;;;;;5.75;4.50;;;;;;;;5501530;25;44771;-75
2024/04/12 10:52:48;;;;;;;;;5.00;4.00;;;;;;;;5503502;25;43971;-75
2024/04/12 10:55:16;;;;;;;;;6.75;5.25;;;;;;;;5501564;25;44606;-75
2024/04/12 10:57:47;;;;;;;;;6.00;6.00;;;;;;;;5501451;25;43964;-75
2024/04/12 11:00:15;;;;;;;;;3.50;3.25;;;;;;;;5503471;25;43904;-75
2024/04/12 11:02:44;;;;;;;;;5.00;5.00;;;;;;;;5500890;25;44095;-77
2024/04/12 11:06:03;;;;;;;;;6.25;6.25;;;;;;;;5500965;25;43933;-79
2024/04/12 11:08:01;;;;;;;;;6.00;6.00;;;;;;;;5495707;25;44105;-77
2024/04/12 11:10:39;;;;;;;;;6.00;5.50;;;;;;;;5500199;25;44178;-77
2024/04/12 11:13:06;;;;;;;;;5.50;5.50;;;;;;;;5502473;25;45414;-76
2024/04/12 11:32:05;;;;;;;;;4.50;4.50;;;;;;;;5502247;25;43812;-78
2024/04/12 11:34:32;;;;;;;;;5.00;5.00;;;;;;;;5501358;25;45045;-77
2024/04/12 11:37:05;;;;;;;;;4.50;4.50;;;;;;;;5500453;25;43971;-78
2024/04/12 11:39:33;;;;;;;;;5.00;5.00;;;;;;;;5502991;25;43948;-78
2024/04/12 11:42:03;;;;;;;;;5.00;5.00;;;;;;;;5502149;25;44669;-76
2024/04/12 11:44:31;;;;;;;;;5.00;5.00;;;;;;;;5502269;25;44021;-77
2024/04/12 11:47:02;;;;;;;;;6.50;5.75;;;;;;;;5502775;25;43797;-76
2024/04/12 11:49:28;;;;;;;;;5.50;5.50;;;;;;;;5502569;25;43920;-76
2024/04/12 11:51:57;;;;;;;;;6.00;6.00;;;;;;;;5500449;25;45675;-77
2024/04/12 11:54:24;;;;;;;;;4.50;4.50;;;;;;;;5502535;25;44821;-77
2024/04/12 11:56:49;;;;;;;;;3.25;3.25;;;;;;;;5502493;25;43751;-77
2024/04/12 11:59:18;;;;;;;;;4.00;3.75;;;;;;;;5501854;25;43804;-76
2024/04/12 12:01:43;;;;;;;;;5.50;5.50;;;;;;;;5501107;25;44178;-77
2024/04/12 12:04:09;;;;;;;;;6.00;5.75;;;;;;;;5502164;25;45751;-77
2024/04/12 12:06:34;;;;;;;;;3.75;3.75;;;;;;;;5502196;25;44150;-77
2024/04/12 12:09:11;;;;;;;;;5.25;4.75;;;;;;;;5502361;25;44195;-78
2024/04/12 12:11:37;;;;;;;;;5.25;4.25;;;;;;;;5497576;25;44190;-78
2024/04/12 12:14:04;;;;;;;;;4.25;4.00;;;;;;;;5501431;25;44841;-78
2024/04/12 12:16:33;;;;;;;;;6.25;6.25;;;;;;;;5501974;25;44154;-78
2024/04/12 12:18:58;;;;;;;;;5.00;5.00;;;;;;;;5502055;25;43856;-78
2024/04/12 12:21:23;;;;;;;;;6.50;5.00;;;;;;;;5501001;25;43852;-79
2024/04/12 12:23:48;;;;;;;;;4.00;4.00;;;;;;;;5499613;25;44736;-79
2024/04/12 12:26:14;;;;;;;;;4.00;4.00;;;;;;;;5498781;25;43640;-79
2024/04/12 12:28:40;;;;;;;;;5.00;5.00;;;;;;;;5498201;25;43931;-78
2024/04/12 12:31:06;;;;;;;;;5.00;5.00;;;;;;;;5499651;25;44028;-78
2024/04/12 12:33:37;;;;;;;;;3.25;3.25;;;;;;;;5480936;25;44828;-79
2024/04/12 12:36:05;;;;;;;;;4.50;4.25;;;;;;;;5480740;25;43786;-77
2024/04/12 12:38:31;;;;;;;;;4.75;4.75;;;;;;;;5504514;25;43818;-78
2024/04/12 12:40:57;;;;;;;;;4.50;3.00;;;;;;;;5504313;25;44587;-78
2024/04/12 12:43:22;;;;;;;;;5.75;4.75;;;;;;;;5503680;25;44896;-78
2024/04/12 12:45:48;;;;;;;;;4.25;4.25;;;;;;;;5500725;25;44199;-77
2024/04/12 12:48:19;;;;;;;;;7.00;6.00;;;;;;;;5501822;25;43878;-77
2024/04/12 12:50:45;;;;;;;;;4.00;4.00;;;;;;;;5501744;25;44279;-78
2024/04/12 12:53:12;;;;;;;;;4.00;4.00;;;;;;;;5503898;25;44960;-78
2024/04/12 12:55:39;;;;;;;;;5.50;5.25;;;;;;;;5504583;25;44011;-78
2024/04/12 12:58:11;;;;;;;;;5.00;5.00;;;;;;;;5503974;25;43946;-78
2024/04/12 13:00:39;;;;;;;;;5.25;5.25;;;;;;;;5504524;25;44670;-78
2024/04/12 13:03:12;;;;;;;;;4.50;4.50;;;;;;;;5503893;25;44896;-78
2024/04/12 13:05:40;;;;;;;;;5.00;5.00;;;;;;;;5504300;25;43852;-78
2024/04/12 13:08:05;;;;;;;;;6.00;5.00;;;;;;;;5504253;25;44182;-79
2024/04/12 13:10:33;;;;;;;;;6.00;5.00;;;;;;;;5503803;25;44059;-80
2024/04/12 13:13:04;;;;;;;;;5.75;5.75;;;;;;;;5502046;25;45105;-78
2024/04/12 13:15:30;;;;;;;;;4.25;4.25;;;;;;;;5504465;25;44233;-78
2024/04/12 13:17:56;;;;;;;;;6.00;6.00;;;;;;;;5504553;25;43786;-78
2024/04/12 13:20:21;;;;;;;;;4.00;4.00;;;;;;;;5503276;25;44108;-78
2024/04/12 13:22:50;;;;;;;;;6.50;5.00;;;;;;;;5503539;25;44636;-78
2024/04/12 13:25:15;;;;;;;;;5.50;5.50;;;;;;;;5502409;25;44217;-78
2024/04/12 13:27:41;;;;;;;;;6.25;4.25;;;;;;;;5503360;25;44060;-78
2024/04/12 13:30:10;;;;;;;;;5.00;5.00;;;;;;;;5504011;25;44669;-78
2024/04/12 13:32:39;;;;;;;;;6.00;5.25;;;;;;;;5503719;25;43867;-78
2024/04/12 13:35:04;;;;;;;;;4.75;3.75;;;;;;;;5504102;25;43934;-78
2024/04/12 13:37:30;;;;;;;;;4.75;4.75;;;;;;;;5503859;25;43733;-77
2024/04/12 13:39:55;;;;;;;;;7.00;7.00;;;;;;;;5503831;25;44163;-78
2024/04/12 13:42:23;;;;;;;;;4.50;4.00;;;;;;;;5498325;25;44712;-78
2024/04/12 13:53:04;;;;;;;;;4.50;3.25;;;;;;;;5503621;25;43915;-78
2024/04/12 13:55:34;;;;;;;;;5.75;5.00;;;;;;;;5503942;25;43923;-78
2024/04/12 13:58:01;;;;;;;;;2.75;2.75;;;;;;;;5503387;25;43868;-78
2024/04/12 14:00:30;;;;;;;;;4.50;4.50;;;;;;;;5502726;25;43907;-78
2024/04/12 14:02:55;;;;;;;;;6.50;5.50;;;;;;;;5502294;25;44746;-78
2024/04/12 14:05:20;;;;;;;;;2.25;2.25;;;;;;;;5503866;25;43899;-77
2024/04/12 14:07:49;;;;;;;;;5.50;5.50;;;;;;;;5503263;25;43948;-77
2024/04/12 14:10:14;;;;;;;;;4.00;4.00;;;;;;;;5503057;25;44068;-78
2024/04/12 14:12:40;;;;;;;;;6.75;6.75;;;;;;;;5502118;25;43826;-78
2024/04/12 14:15:05;;;;;;;;;6.50;5.00;;;;;;;;5492687;25;44007;-77
2024/04/12 14:17:30;;;;;;;;;6.50;6.50;;;;;;;;5499832;25;43865;-81
2024/04/12 14:19:56;;;;;;;;;6.00;6.00;;;;;;;;5502413;25;44141;-79
2024/04/12 14:22:21;;;;;;;;;4.75;4.00;;;;;;;;5502653;25;44868;-78
2024/04/12 14:24:56;;;;;;;;;4.00;4.00;;;;;;;;5503596;25;43775;-79
2024/04/12 14:27:21;;;;;;;;;6.75;6.00;;;;;;;;5501965;25;43822;-79
2024/04/12 14:29:46;;;;;;;;;8.75;8.50;;;;;;;;5499134;25;43901;-79
2024/04/12 14:32:12;;;;;;;;;7.00;7.00;;;;;;;;5503352;25;43927;-79
2024/04/12 14:34:37;;;;;;;;;5.00;4.25;;;;;;;;5503200;25;43865;-79
2024/04/12 14:37:03;;;;;;;;;5.00;5.00;;;;;;;;5501354;25;43800;-78
2024/04/12 14:39:28;;;;;;;;;5.25;5.25;;;;;;;;5503668;25;44113;-79
2024/04/12 14:41:56;;;;;;;;;4.75;4.75;;;;;;;;5501570;25;44063;-79
2024/04/12 14:44:22;;;;;;;;;3.25;3.25;;;;;;;;5503326;25;43775;-78
2024/04/12 14:46:47;;;;;;;;;4.25;4.25;;;;;;;;5502258;25;43688;-79
2024/04/12 14:49:12;;;;;;;;;5.00;5.00;;;;;;;;5502553;25;44196;-78
2024/04/12 14:51:42;;;;;;;;;5.25;5.25;;;;;;;;5501990;25;44773;-79
2024/04/12 14:54:07;;;;;;;;;5.25;5.25;;;;;;;;5501378;25;44034;-78
2024/04/12 14:56:32;;;;;;;;;6.25;6.25;;;;;;;;5501243;25;43850;-78
2024/04/12 14:58:58;;;;;;;;;5.75;5.75;;;;;;;;5503064;25;43853;-78
2024/04/12 15:01:23;;;;;;;;;5.00;5.00;;;;;;;;5502850;25;44849;-78
2024/04/12 16:12:13;;;;;;;;;4.75;4.75;;;;;;;;5502314;25;43988;-79
2024/04/12 16:14:39;;;;;;;;;4.25;3.75;;;;;;;;5502021;25;44057;-78
2024/04/12 16:17:04;;;;;;;;;3.25;3.25;;;;;;;;5502203;25;43967;-78
2024/04/12 16:19:29;;;;;;;;;3.25;3.25;;;;;;;;5502097;25;44226;-78
2024/04/12 16:21:55;;;;;;;;;6.00;5.75;;;;;;;;5501964;25;43987;-77
2024/04/12 16:24:20;;;;;;;;;4.00;4.00;;;;;;;;5501676;25;44569;-78
2024/04/12 16:26:46;;;;;;;;;6.50;4.75;;;;;;;;5501701;25;44774;-78
2024/04/12 16:29:11;;;;;;;;;4.50;4.50;;;;;;;;5501758;25;44495;-76
2024/04/12 16:31:36;;;;;;;;;3.00;2.25;;;;;;;;5502009;25;43763;-78
2024/04/12 16:34:02;;;;;;;;;3.50;3.50;;;;;;;;5500684;25;43898;-78
2024/04/12 16:36:27;;;;;;;;;3.50;3.50;;;;;;;;5501891;25;43955;-78
2024/04/12 16:38:53;;;;;;;;;3.50;3.50;;;;;;;;5501650;25;43813;-78
2024/04/12 16:41:19;;;;;;;;;4.25;3.75;;;;;;;;5501974;25;43783;-76
2024/04/12 16:43:45;;;;;;;;;2.50;2.50;;;;;;;;5501522;25;43947;-79
2024/04/12 16:46:11;;;;;;;;;3.00;2.50;;;;;;;;5501456;25;43870;-79
2024/04/12 16:48:37;;;;;;;;;3.00;3.00;;;;;;;;5499921;25;44204;-79
2024/04/12 16:51:03;;;;;;;;;3.50;3.50;;;;;;;;5501095;25;44084;-78
2024/04/12 16:53:31;;;;;;;;;3.00;3.00;;;;;;;;5501423;25;43895;-78
2024/04/12 16:55:57;;;;;;;;;3.75;3.75;;;;;;;;5500327;25;44937;-78
2024/04/12 16:58:25;;;;;;;;;4.00;3.25;;;;;;;;5500893;25;43888;-79
2024/04/12 17:00:50;;;;;;;;;4.00;4.00;;;;;;;;5501209;25;43890;-78
2024/04/12 17:03:16;;;;;;;;;4.25;4.25;;;;;;;;5501333;25;44062;-78